Terminal Aerodrome Forecast
Issued by NWS

Home | Current Version | Previous Version | Text Only | Print | Product List | Glossary On
Versions: 1 2 3 4 5 6 7 8 9 10 11 12 13 14
000
FTUS45 KREV 272332
TAFCXP
TAF
KCXP 272332Z 2800/2824 28011KT P6SM SCT080 BKN220
     FM280300 33010G18KT P6SM FEW080 BKN220
     FM280800 34008KT P6SM SCT220
     FM281800 06013G22KT P6SM SKC=

USA.gov is the U.S. government's official web portal to all federal, state and local government web resources and services.